Time;durP1;ratioP1;P1;durP2;ratioP2;P2;SDS_P1;SDS_P2;PMS_P1;PMS_P2;Temp;Humidity;BMP_temperature;BMP_pressure;BME280_temperature;BME280_humidity;BME280_pressure;Samples;Min_cycle;Max_cycle;Signal;HPM_P1;HPM_P2
2024/04/16 00:00:21;;;;;;;7.50;6.03;;;;;;;;;;8292699;21;19991;-72
2024/04/16 00:03:24;;;;;;;6.55;5.45;;;;;;;;;;8244743;21;19999;-72
2024/04/16 00:06:26;;;;;;;7.53;6.13;;;;;;;;;;8293194;21;20080;-72
2024/04/16 00:14:10;;;;;;;11.25;6.97;;;;;;;;;;8294362;21;19995;-74
2024/04/16 00:17:27;;;;;;;11.43;6.57;;;;;;;;;;8211023;21;20003;-71
2024/04/16 00:20:30;;;;;;;6.85;4.63;;;;;;;;;;8299395;21;20086;-71
2024/04/16 00:23:32;;;;;;;11.15;9.50;;;;;;;;;;8290591;21;19999;-71
2024/04/16 00:26:35;;;;;;;7.88;7.07;;;;;;;;;;8286504;21;19999;-73
2024/04/16 00:29:37;;;;;;;6.00;4.10;;;;;;;;;;8288894;21;20015;-72
2024/04/16 00:32:40;;;;;;;8.65;7.75;;;;;;;;;;8285871;21;19991;-74
2024/04/16 00:35:43;;;;;;;6.07;4.50;;;;;;;;;;8242471;21;20069;-73
2024/04/16 00:38:46;;;;;;;5.45;4.22;;;;;;;;;;8283813;21;20048;-72
2024/04/16 00:41:48;;;;;;;7.57;4.10;;;;;;;;;;8282846;21;20054;-72
2024/04/16 00:44:51;;;;;;;8.30;7.50;;;;;;;;;;8283174;21;20002;-73
2024/04/16 00:47:55;;;;;;;7.88;6.15;;;;;;;;;;8280573;21;20588;-72
2024/04/16 00:50:58;;;;;;;8.50;7.63;;;;;;;;;;8284448;21;19991;-73
2024/04/16 00:54:02;;;;;;;8.10;6.85;;;;;;;;;;8281344;21;20710;-72
2024/04/16 00:57:05;;;;;;;7.65;6.95;;;;;;;;;;8282424;21;20023;-72
2024/04/16 01:00:08;;;;;;;6.85;4.38;;;;;;;;;;8194459;21;20039;-73
2024/04/16 01:03:11;;;;;;;10.77;6.53;;;;;;;;;;8283926;21;19995;-72
2024/04/16 01:06:14;;;;;;;6.70;5.28;;;;;;;;;;8284213;21;20488;-73
2024/04/16 01:09:17;;;;;;;8.70;6.70;;;;;;;;;;8238531;21;20651;-73
2024/04/16 01:12:20;;;;;;;9.55;7.68;;;;;;;;;;8237430;21;20022;-73
2024/04/16 01:15:22;;;;;;;9.13;6.55;;;;;;;;;;8281782;21;20007;-73
2024/04/16 01:18:25;;;;;;;10.30;7.65;;;;;;;;;;8281990;21;20007;-73
2024/04/16 01:21:28;;;;;;;7.45;3.88;;;;;;;;;;8282770;21;20003;-73
2024/04/16 01:24:30;;;;;;;10.68;7.13;;;;;;;;;;8284295;21;20446;-73
2024/04/16 01:27:33;;;;;;;8.00;5.68;;;;;;;;;;8280902;21;20009;-72
2024/04/16 01:30:35;;;;;;;9.63;5.13;;;;;;;;;;8279960;21;20042;-73
2024/04/16 01:33:38;;;;;;;9.40;3.72;;;;;;;;;;8280788;21;20003;-73
2024/04/16 01:36:41;;;;;;;8.10;5.60;;;;;;;;;;8279905;21;20006;-73
2024/04/16 01:39:43;;;;;;;6.25;3.78;;;;;;;;;;8281323;21;20068;-73
2024/04/16 01:42:46;;;;;;;7.05;5.80;;;;;;;;;;8278651;21;20317;-73
2024/04/16 01:45:49;;;;;;;6.90;3.63;;;;;;;;;;8278842;21;19995;-73
2024/04/16 01:48:51;;;;;;;7.00;3.40;;;;;;;;;;8281897;21;20051;-73
2024/04/16 01:51:54;;;;;;;6.65;3.65;;;;;;;;;;8279465;21;20711;-73
2024/04/16 01:54:57;;;;;;;10.35;6.28;;;;;;;;;;8279961;21;19999;-73
2024/04/16 01:57:59;;;;;;;6.25;3.67;;;;;;;;;;8281690;21;20068;-73
2024/04/16 02:01:02;;;;;;;10.63;9.63;;;;;;;;;;8282038;21;20539;-73
2024/04/16 02:04:05;;;;;;;7.68;4.82;;;;;;;;;;8235676;21;20819;-73
2024/04/16 02:07:07;;;;;;;6.45;3.83;;;;;;;;;;8279669;21;20003;-73
2024/04/16 02:10:13;;;;;;;6.82;3.60;;;;;;;;;;8235997;21;20022;-73
2024/04/16 02:13:15;;;;;;;8.00;6.72;;;;;;;;;;8281357;21;20517;-73
2024/04/16 02:16:18;;;;;;;5.82;4.22;;;;;;;;;;8279046;21;20423;-73
2024/04/16 02:19:21;;;;;;;8.43;3.92;;;;;;;;;;8281050;21;20085;-73
2024/04/16 02:22:23;;;;;;;10.25;4.00;;;;;;;;;;8279024;21;19991;-73
2024/04/16 02:25:26;;;;;;;8.57;7.25;;;;;;;;;;8281540;21;20366;-73
2024/04/16 02:28:29;;;;;;;6.90;4.03;;;;;;;;;;8279219;21;19995;-73
2024/04/16 02:31:31;;;;;;;9.65;6.90;;;;;;;;;;8281854;21;20013;-73
2024/04/16 02:34:34;;;;;;;11.43;7.65;;;;;;;;;;8281395;21;20042;-73
2024/04/16 02:37:37;;;;;;;8.57;4.57;;;;;;;;;;8279622;21;20007;-72
2024/04/16 02:40:40;;;;;;;12.40;4.53;;;;;;;;;;8279725;21;20068;-73
2024/04/16 02:43:42;;;;;;;8.88;4.65;;;;;;;;;;8279141;21;20002;-73
2024/04/16 02:46:45;;;;;;;8.23;7.20;;;;;;;;;;8277155;21;20656;-73
2024/04/16 02:49:47;;;;;;;8.40;7.60;;;;;;;;;;8190865;21;20031;-73
2024/04/16 02:52:50;;;;;;;8.20;4.32;;;;;;;;;;8280092;21;19999;-73
2024/04/16 02:55:53;;;;;;;7.68;5.18;;;;;;;;;;8278940;21;20003;-73
2024/04/16 02:58:55;;;;;;;8.30;3.80;;;;;;;;;;8279092;21;20021;-72
2024/04/16 03:01:58;;;;;;;8.85;6.63;;;;;;;;;;8278772;21;20512;-73
2024/04/16 03:05:00;;;;;;;8.05;7.20;;;;;;;;;;8281142;21;20003;-73
2024/04/16 03:08:04;;;;;;;10.00;4.75;;;;;;;;;;8279118;21;20325;-72
2024/04/16 03:11:06;;;;;;;7.65;3.72;;;;;;;;;;8280418;21;20014;-72
2024/04/16 03:14:09;;;;;;;7.80;7.00;;;;;;;;;;8281500;21;20701;-72
2024/04/16 03:17:11;;;;;;;6.65;3.92;;;;;;;;;;8280125;21;19999;-72
2024/04/16 03:20:15;;;;;;;11.48;5.18;;;;;;;;;;8234759;21;20003;-72
2024/04/16 03:23:17;;;;;;;9.05;8.10;;;;;;;;;;8278698;21;20042;-73
2024/04/16 03:26:20;;;;;;;8.15;4.20;;;;;;;;;;8280602;21;19999;-73
2024/04/16 03:29:23;;;;;;;11.68;4.40;;;;;;;;;;8281606;21;19991;-73
2024/04/16 03:32:25;;;;;;;9.30;4.40;;;;;;;;;;8278499;21;20003;-73
2024/04/16 03:35:28;;;;;;;10.48;5.80;;;;;;;;;;8279158;21;20073;-73
2024/04/16 03:38:31;;;;;;;7.25;5.13;;;;;;;;;;8279594;21;20465;-74
2024/04/16 03:41:33;;;;;;;8.60;4.50;;;;;;;;;;8282031;21;20454;-74
2024/04/16 03:44:36;;;;;;;7.93;3.88;;;;;;;;;;8280481;21;20040;-73
2024/04/16 03:47:38;;;;;;;11.57;4.70;;;;;;;;;;8280260;21;19999;-73
2024/04/16 03:50:42;;;;;;;10.18;5.68;;;;;;;;;;8232881;21;20044;-72
2024/04/16 03:53:44;;;;;;;8.80;5.50;;;;;;;;;;8281166;21;20444;-73
2024/04/16 03:56:47;;;;;;;10.68;5.40;;;;;;;;;;8277392;21;19999;-74
2024/04/16 04:03:14;;;;;;;10.38;7.20;;;;;;;;;;8282014;21;20932;-73
2024/04/16 04:06:16;;;;;;;12.82;6.30;;;;;;;;;;8283612;21;20003;-74
2024/04/16 04:09:20;;;;;;;9.25;6.68;;;;;;;;;;8238166;21;19991;-74
2024/04/16 04:12:22;;;;;;;8.80;5.45;;;;;;;;;;8282633;21;20007;-71
2024/04/16 04:15:25;;;;;;;13.00;5.72;;;;;;;;;;8279669;21;19998;-71
2024/04/16 04:18:27;;;;;;;7.75;5.43;;;;;;;;;;8280279;21;20817;-72
2024/04/16 04:21:30;;;;;;;12.18;6.25;;;;;;;;;;8235492;21;19995;-72
2024/04/16 04:24:33;;;;;;;12.55;6.07;;;;;;;;;;8281216;21;20035;-72
2024/04/16 04:27:41;;;;;;;12.73;6.55;;;;;;;;;;8237011;21;20006;-72
2024/04/16 04:30:43;;;;;;;11.30;5.97;;;;;;;;;;8281683;21;20010;-72
2024/04/16 04:33:46;;;;;;;17.27;5.15;;;;;;;;;;8283530;21;20034;-72
2024/04/16 04:36:49;;;;;;;8.02;5.38;;;;;;;;;;8280420;21;20416;-72
2024/04/16 04:39:51;;;;;;;10.68;4.93;;;;;;;;;;8281430;21;20003;-72
2024/04/16 04:42:55;;;;;;;8.30;6.82;;;;;;;;;;8278516;21;20355;-72
2024/04/16 04:45:57;;;;;;;10.43;4.72;;;;;;;;;;8282122;21;20023;-72
2024/04/16 04:49:00;;;;;;;13.70;5.45;;;;;;;;;;8276565;21;19999;-73
2024/04/16 04:52:03;;;;;;;13.45;4.75;;;;;;;;;;8282296;21;20078;-73
2024/04/16 04:55:06;;;;;;;18.58;5.97;;;;;;;;;;8282219;21;20435;-73
2024/04/16 04:58:09;;;;;;;14.23;5.70;;;;;;;;;;8280173;21;19995;-74
2024/04/16 05:01:12;;;;;;;14.60;6.05;;;;;;;;;;8279690;21;20031;-73
2024/04/16 05:04:14;;;;;;;16.05;6.05;;;;;;;;;;8278246;21;20886;-73
2024/04/16 05:07:17;;;;;;;14.60;5.53;;;;;;;;;;8234095;21;20097;-72
2024/04/16 05:10:20;;;;;;;11.93;5.60;;;;;;;;;;8281342;21;20448;-73
2024/04/16 05:13:22;;;;;;;11.88;5.32;;;;;;;;;;8278973;21;20051;-72
2024/04/16 05:16:25;;;;;;;15.02;5.72;;;;;;;;;;8280588;21;20967;-74
2024/04/16 05:19:28;;;;;;;14.48;8.38;;;;;;;;;;8282018;21;20339;-74
2024/04/16 05:22:31;;;;;;;13.45;5.78;;;;;;;;;;8278730;21;20085;-74
2024/04/16 05:25:34;;;;;;;19.83;8.25;;;;;;;;;;8280897;21;20002;-73
2024/04/16 05:28:37;;;;;;;12.65;8.07;;;;;;;;;;8278789;21;19995;-73
2024/04/16 05:31:39;;;;;;;11.40;5.82;;;;;;;;;;8278813;21;20364;-73
2024/04/16 05:34:42;;;;;;;15.30;5.35;;;;;;;;;;8281602;21;19995;-73
2024/04/16 05:37:44;;;;;;;10.40;5.38;;;;;;;;;;8279842;21;20329;-73
2024/04/16 05:40:47;;;;;;;14.35;5.80;;;;;;;;;;8230891;21;19999;-74
2024/04/16 05:43:51;;;;;;;7.88;4.22;;;;;;;;;;8276771;21;19999;-74
2024/04/16 05:46:54;;;;;;;12.98;4.88;;;;;;;;;;8276548;21;19991;-73
2024/04/16 05:50:00;;;;;;;8.38;5.18;;;;;;;;;;8282214;21;19999;-73
2024/04/16 05:53:02;;;;;;;12.70;5.88;;;;;;;;;;8279103;21;19995;-73
2024/04/16 05:56:05;;;;;;;11.25;7.47;;;;;;;;;;8188875;21;20433;-74
2024/04/16 05:59:10;;;;;;;12.00;7.35;;;;;;;;;;8278790;21;20010;-73
2024/04/16 06:02:12;;;;;;;10.27;4.90;;;;;;;;;;8276526;21;20106;-74
2024/04/16 06:05:15;;;;;;;9.57;5.75;;;;;;;;;;8281637;21;20003;-73
2024/04/16 06:08:18;;;;;;;10.50;7.45;;;;;;;;;;8282090;21;20437;-73
2024/04/16 06:11:21;;;;;;;12.23;6.57;;;;;;;;;;8279505;21;20356;-74
2024/04/16 06:14:23;;;;;;;15.32;5.63;;;;;;;;;;8281419;21;20018;-74
2024/04/16 06:17:26;;;;;;;15.80;7.68;;;;;;;;;;8279321;21;20011;-74
2024/04/16 06:20:29;;;;;;;10.70;4.90;;;;;;;;;;8279257;21;20711;-74
2024/04/16 06:23:31;;;;;;;11.30;7.75;;;;;;;;;;8280358;21;20042;-74
2024/04/16 06:26:34;;;;;;;10.77;6.80;;;;;;;;;;8283062;21;20034;-73
2024/04/16 06:29:40;;;;;;;18.30;8.38;;;;;;;;;;8282824;21;20018;-74
2024/04/16 06:32:42;;;;;;;15.68;9.40;;;;;;;;;;8236903;21;20590;-75
2024/04/16 06:35:45;;;;;;;16.15;9.23;;;;;;;;;;8236243;21;20081;-73
2024/04/16 06:38:48;;;;;;;11.55;5.10;;;;;;;;;;8280182;21;19999;-73
2024/04/16 06:41:50;;;;;;;16.33;5.95;;;;;;;;;;8282046;21;19999;-73
2024/04/16 06:44:53;;;;;;;11.68;7.05;;;;;;;;;;8278792;21;20005;-73
2024/04/16 06:47:55;;;;;;;8.43;7.38;;;;;;;;;;8281217;21;20011;-74
2024/04/16 06:50:58;;;;;;;13.38;8.70;;;;;;;;;;8279477;21;20579;-73
2024/04/16 06:54:00;;;;;;;14.93;8.55;;;;;;;;;;8233568;21;20003;-73
2024/04/16 06:57:03;;;;;;;12.55;6.40;;;;;;;;;;8277282;21;20394;-72
2024/04/16 07:00:07;;;;;;;9.57;4.68;;;;;;;;;;8279937;21;19999;-73
2024/04/16 07:03:10;;;;;;;9.52;7.03;;;;;;;;;;8280148;21;20382;-73
2024/04/16 07:06:12;;;;;;;6.82;6.13;;;;;;;;;;8278128;21;19995;-74
2024/04/16 07:09:15;;;;;;;9.45;6.53;;;;;;;;;;8280275;21;20010;-73
2024/04/16 07:12:18;;;;;;;13.23;6.47;;;;;;;;;;8279258;21;20796;-73
2024/04/16 07:15:21;;;;;;;13.43;7.90;;;;;;;;;;8279652;21;20010;-73
2024/04/16 07:18:24;;;;;;;14.85;7.43;;;;;;;;;;8235355;21;20009;-73
2024/04/16 07:21:27;;;;;;;11.85;7.70;;;;;;;;;;8279125;21;19991;-74
2024/04/16 07:24:29;;;;;;;8.27;5.55;;;;;;;;;;8235366;21;19999;-73
2024/04/16 07:27:32;;;;;;;10.18;4.35;;;;;;;;;;8278952;21;19991;-74
2024/04/16 07:30:34;;;;;;;10.40;5.97;;;;;;;;;;8282626;21;20918;-74
2024/04/16 07:33:38;;;;;;;8.95;6.70;;;;;;;;;;8281080;21;20014;-73
2024/04/16 07:36:41;;;;;;;8.30;5.75;;;;;;;;;;8282294;21;20018;-74
2024/04/16 07:39:46;;;;;;;10.10;6.55;;;;;;;;;;8238921;21;19995;-73
2024/04/16 07:42:50;;;;;;;6.95;5.80;;;;;;;;;;8238979;21;20014;-73
2024/04/16 07:45:53;;;;;;;;;;;;;;;;;;8287314;21;20394;-73
2024/04/16 07:48:56;;;;;;;9.75;4.40;;;;;;;;;;8239018;21;19927;-73
2024/04/16 07:52:00;;;;;;;13.35;8.18;;;;;;;;;;8282746;21;20331;-72
2024/04/16 07:55:03;;;;;;;11.27;6.35;;;;;;;;;;8238672;21;20039;-73
2024/04/16 07:58:05;;;;;;;9.70;6.25;;;;;;;;;;8282416;21;19998;-73
2024/04/16 08:01:08;;;;;;;11.52;3.97;;;;;;;;;;8236635;21;20817;-73
2024/04/16 08:04:11;;;;;;;9.32;6.18;;;;;;;;;;8286599;21;20035;-74
2024/04/16 08:07:13;;;;;;;9.35;8.02;;;;;;;;;;8286004;21;20476;-75
2024/04/16 08:10:17;;;;;;;10.18;4.47;;;;;;;;;;8283751;21;20084;-74
2024/04/16 08:13:20;;;;;;;8.98;6.30;;;;;;;;;;8282105;21;20002;-73
2024/04/16 08:16:22;;;;;;;10.73;5.32;;;;;;;;;;8283510;21;20003;-73
2024/04/16 08:19:26;;;;;;;11.35;4.35;;;;;;;;;;8282108;21;20010;-73
2024/04/16 08:22:28;;;;;;;11.38;5.50;;;;;;;;;;8232543;21;19995;-74
2024/04/16 08:25:31;;;;;;;8.48;3.85;;;;;;;;;;8282570;21;20036;-74
2024/04/16 08:28:34;;;;;;;8.23;3.85;;;;;;;;;;8282889;21;19995;-73
2024/04/16 08:31:37;;;;;;;12.02;4.13;;;;;;;;;;8280093;21;19996;-73
2024/04/16 08:34:40;;;;;;;12.52;4.43;;;;;;;;;;8281047;21;20040;-73
2024/04/16 08:37:43;;;;;;;12.65;4.82;;;;;;;;;;8283910;21;20014;-74
2024/04/16 08:40:46;;;;;;;8.93;3.72;;;;;;;;;;8283034;21;20009;-72
2024/04/16 08:43:50;;;;;;;7.53;4.00;;;;;;;;;;8282821;21;20035;-74
2024/04/16 08:46:58;;;;;;;9.70;4.53;;;;;;;;;;8280980;21;20002;-73
2024/04/16 08:50:03;;;;;;;11.65;4.28;;;;;;;;;;8193303;21;19999;-72
2024/04/16 08:53:06;;;;;;;11.48;4.68;;;;;;;;;;8279416;21;20003;-73
2024/04/16 08:56:09;;;;;;;10.20;3.20;;;;;;;;;;8280611;21;19995;-73
2024/04/16 08:59:12;;;;;;;8.02;4.03;;;;;;;;;;8281272;21;19999;-73
2024/04/16 09:02:16;;;;;;;8.30;3.58;;;;;;;;;;8193426;21;20010;-76
2024/04/16 09:05:19;;;;;;;9.85;4.57;;;;;;;;;;8233693;21;19991;-73
2024/04/16 09:08:23;;;;;;;6.88;3.30;;;;;;;;;;8282718;21;20053;-73
2024/04/16 09:11:26;;;;;;;9.40;3.55;;;;;;;;;;8191437;21;20003;-74
2024/04/16 09:14:30;;;;;;;10.90;3.47;;;;;;;;;;8280703;21;19995;-73
2024/04/16 09:17:33;;;;;;;10.38;3.35;;;;;;;;;;8234716;21;20547;-75
2024/04/16 09:20:36;;;;;;;9.75;3.90;;;;;;;;;;8280158;21;20022;-73
2024/04/16 09:23:38;;;;;;;14.20;4.50;;;;;;;;;;8278496;21;20031;-73
2024/04/16 09:26:41;;;;;;;8.80;2.95;;;;;;;;;;8236117;21;19999;-74
2024/04/16 09:29:45;;;;;;;11.02;2.75;;;;;;;;;;8280544;21;20095;-73
2024/04/16 09:32:57;;;;;;;14.65;4.22;;;;;;;;;;8279328;21;20969;-74
2024/04/16 09:35:59;;;;;;;10.32;2.88;;;;;;;;;;8282455;21;20329;-74
2024/04/16 09:39:03;;;;;;;9.13;4.57;;;;;;;;;;8279670;21;19995;-73
2024/04/16 09:42:06;;;;;;;11.23;3.25;;;;;;;;;;8280828;21;20027;-74
2024/04/16 09:45:09;;;;;;;10.63;3.25;;;;;;;;;;8236819;21;19995;-73
2024/04/16 09:48:12;;;;;;;8.65;4.22;;;;;;;;;;8283458;21;20039;-73
2024/04/16 09:51:15;;;;;;;14.20;5.85;;;;;;;;;;8280058;21;20448;-73
2024/04/16 09:54:19;;;;;;;7.25;4.65;;;;;;;;;;8279335;21;20072;-73
2024/04/16 09:57:23;;;;;;;9.68;3.20;;;;;;;;;;8280656;21;20633;-73
2024/04/16 10:00:27;;;;;;;15.35;3.63;;;;;;;;;;8279473;21;19995;-73
2024/04/16 10:03:33;;;;;;;10.48;5.28;;;;;;;;;;8279571;21;20077;-74
2024/04/16 10:06:35;;;;;;;11.77;3.53;;;;;;;;;;8279855;21;20051;-73
2024/04/16 10:09:38;;;;;;;12.20;3.30;;;;;;;;;;8281973;21;20705;-73
2024/04/16 10:12:42;;;;;;;11.25;4.95;;;;;;;;;;8281578;21;20049;-73
2024/04/16 10:15:46;;;;;;;13.13;4.80;;;;;;;;;;8280888;21;20059;-73
2024/04/16 10:18:56;;;;;;;8.65;5.68;;;;;;;;;;8278998;21;20352;-73
2024/04/16 10:22:02;;;;;;;8.32;3.15;;;;;;;;;;8278981;21;19998;-72
2024/04/16 10:25:05;;;;;;;10.90;3.58;;;;;;;;;;8278624;21;20003;-73
2024/04/16 10:28:08;;;;;;;21.98;6.53;;;;;;;;;;8278631;21;19998;-73
2024/04/16 10:31:16;;;;;;;10.80;5.28;;;;;;;;;;8233780;21;20640;-73
2024/04/16 10:34:27;;;;;;;19.23;3.85;;;;;;;;;;8236287;21;19995;-73
2024/04/16 10:37:34;;;;;;;18.42;5.47;;;;;;;;;;8279401;21;20040;-73
2024/04/16 10:40:38;;;;;;;8.70;4.20;;;;;;;;;;8279648;21;20317;-73
2024/04/16 10:43:44;;;;;;;12.27;7.10;;;;;;;;;;8278433;21;19998;-73
2024/04/16 10:46:49;;;;;;;10.25;4.10;;;;;;;;;;8277819;21;20003;-73
2024/04/16 10:49:55;;;;;;;13.88;4.50;;;;;;;;;;8230537;21;19991;-73
2024/04/16 10:52:58;;;;;;;14.48;4.47;;;;;;;;;;8277181;21;20006;-73
2024/04/16 10:56:01;;;;;;;12.13;3.65;;;;;;;;;;8275505;21;20009;-73
2024/04/16 10:59:07;;;;;;;15.20;3.80;;;;;;;;;;8277621;21;20015;-73
2024/04/16 11:02:10;;;;;;;19.08;5.75;;;;;;;;;;8274260;21;20731;-73
2024/04/16 11:05:17;;;;;;;12.45;4.10;;;;;;;;;;8278333;21;20043;-73
2024/04/16 11:08:20;;;;;;;13.50;3.60;;;;;;;;;;8280237;21;20005;-73
2024/04/16 11:11:24;;;;;;;11.80;5.10;;;;;;;;;;8280627;21;19995;-73
2024/04/16 11:14:27;;;;;;;;;;;;;;;;;;8280691;21;19995;-73
2024/04/16 11:17:30;;;;;;;16.90;5.82;;;;;;;;;;8233912;21;19989;-73
2024/04/16 11:20:33;;;;;;;20.92;5.25;;;;;;;;;;8274775;21;20003;-73
2024/04/16 11:23:35;;;;;;;18.40;5.32;;;;;;;;;;8277750;21;20456;-73
2024/04/16 11:26:38;;;;;;;20.23;3.70;;;;;;;;;;8279639;21;20015;-74
2024/04/16 11:29:49;;;;;;;13.57;5.40;;;;;;;;;;8233884;21;20010;-74
2024/04/16 11:32:52;;;;;;;15.60;3.67;;;;;;;;;;8234460;21;20067;-73
2024/04/16 11:35:56;;;;;;;19.85;3.63;;;;;;;;;;8277910;21;20000;-74
2024/04/16 11:38:58;;;;;;;18.90;4.32;;;;;;;;;;8188954;21;20082;-74
2024/04/16 11:42:01;;;;;;;25.92;4.13;;;;;;;;;;8232403;21;20010;-74
2024/04/16 11:45:04;;;;;;;15.30;5.30;;;;;;;;;;8278383;21;20458;-73
2024/04/16 11:48:07;;;;;;;15.00;3.60;;;;;;;;;;8277292;21;20137;-73
2024/04/16 11:51:10;;;;;;;19.85;5.13;;;;;;;;;;8274863;21;19995;-73
2024/04/16 11:54:13;;;;;;;22.08;5.60;;;;;;;;;;8277211;21;19999;-73
2024/04/16 11:57:17;;;;;;;16.80;6.10;;;;;;;;;;8277757;21;20356;-73
2024/04/16 12:00:20;;;;;;;21.98;4.35;;;;;;;;;;8278113;21;20003;-73
2024/04/16 12:03:22;;;;;;;26.55;4.53;;;;;;;;;;8279437;21;20003;-73
2024/04/16 12:06:25;;;;;;;30.95;5.30;;;;;;;;;;8233253;21;20009;-73
2024/04/16 12:09:27;;;;;;;24.52;4.50;;;;;;;;;;8233403;21;20013;-73
2024/04/16 12:12:30;;;;;;;19.42;4.20;;;;;;;;;;8275599;21;20900;-73
2024/04/16 12:15:33;;;;;;;20.20;4.80;;;;;;;;;;8277352;21;20014;-73
2024/04/16 12:18:35;;;;;;;25.27;5.72;;;;;;;;;;8279363;21;19991;-73
2024/04/16 12:21:38;;;;;;;20.23;4.90;;;;;;;;;;8281499;21;19999;-73
2024/04/16 12:24:40;;;;;;;18.20;4.03;;;;;;;;;;8282392;21;20357;-72
2024/04/16 12:27:43;;;;;;;22.00;4.30;;;;;;;;;;8281216;21;20843;-73
2024/04/16 12:30:46;;;;;;;32.05;7.28;;;;;;;;;;8283686;21;20022;-73
2024/04/16 12:33:49;;;;;;;24.88;6.18;;;;;;;;;;8279400;21;20077;-72
2024/04/16 12:36:51;;;;;;;30.35;5.95;;;;;;;;;;8280706;21;20009;-73
2024/04/16 12:39:55;;;;;;;22.35;6.50;;;;;;;;;;8280290;21;20154;-73
2024/04/16 12:42:58;;;;;;;22.73;5.00;;;;;;;;;;8282833;21;19991;-73
2024/04/16 12:46:01;;;;;;;28.50;6.80;;;;;;;;;;8282630;21;20007;-72
2024/04/16 12:49:04;;;;;;;29.55;4.70;;;;;;;;;;8284197;21;19998;-73
2024/04/16 12:52:06;;;;;;;32.33;4.55;;;;;;;;;;8283880;21;19999;-73
2024/04/16 12:55:09;;;;;;;27.85;6.35;;;;;;;;;;8283698;21;20624;-72
2024/04/16 12:58:13;;;;;;;30.40;7.97;;;;;;;;;;8281666;21;20015;-73
2024/04/16 13:01:16;;;;;;;27.30;5.13;;;;;;;;;;8281199;21;20395;-72
2024/04/16 13:04:18;;;;;;;27.98;5.10;;;;;;;;;;8281327;21;19999;-72
2024/04/16 13:07:21;;;;;;;28.92;7.80;;;;;;;;;;8236362;21;20080;-72
2024/04/16 13:10:24;;;;;;;27.23;6.28;;;;;;;;;;8280501;21;20361;-72
2024/04/16 13:13:27;;;;;;;24.42;4.65;;;;;;;;;;8280240;21;20073;-72
2024/04/16 13:16:29;;;;;;;31.33;6.45;;;;;;;;;;8282442;21;20014;-72
2024/04/16 13:19:32;;;;;;;25.08;5.68;;;;;;;;;;8282111;21;19995;-72
2024/04/16 13:22:35;;;;;;;16.77;4.35;;;;;;;;;;8283490;21;20073;-72
2024/04/16 13:25:37;;;;;;;23.25;10.05;;;;;;;;;;8285029;21;20028;-72
2024/04/16 13:28:40;;;;;;;24.52;5.97;;;;;;;;;;8280018;21;20007;-73
2024/04/16 13:31:43;;;;;;;19.27;4.10;;;;;;;;;;8279152;21;19999;-72
2024/04/16 13:34:45;;;;;;;27.67;5.63;;;;;;;;;;8280230;21;20018;-72
2024/04/16 13:37:53;;;;;;;22.83;5.40;;;;;;;;;;8236884;21;19995;-73
2024/04/16 13:40:56;;;;;;;24.65;7.45;;;;;;;;;;8283351;21;20523;-72
2024/04/16 13:43:58;;;;;;;41.38;7.97;;;;;;;;;;8282704;21;20042;-72
2024/04/16 13:47:01;;;;;;;20.80;6.13;;;;;;;;;;8281805;21;20617;-72
2024/04/16 13:50:04;;;;;;;26.33;7.43;;;;;;;;;;8281178;21;20027;-72
2024/04/16 13:53:07;;;;;;;31.48;6.82;;;;;;;;;;8279020;21;20005;-71
2024/04/16 13:56:10;;;;;;;20.80;3.63;;;;;;;;;;8279184;21;20017;-72
2024/04/16 13:59:13;;;;;;;22.23;4.50;;;;;;;;;;8281475;21;19994;-73
2024/04/16 14:02:15;;;;;;;16.95;6.30;;;;;;;;;;8281327;21;19998;-72
2024/04/16 14:05:18;;;;;;;20.40;4.68;;;;;;;;;;8279623;21;20524;-72
2024/04/16 14:08:20;;;;;;;22.50;4.80;;;;;;;;;;8282829;21;20036;-73
2024/04/16 14:11:23;;;;;;;20.98;3.25;;;;;;;;;;8280854;21;19995;-72
2024/04/16 14:14:26;;;;;;;18.80;5.18;;;;;;;;;;8283200;21;20519;-72
2024/04/16 14:17:28;;;;;;;18.45;4.90;;;;;;;;;;8282731;21;19995;-72
2024/04/16 14:20:31;;;;;;;28.17;4.82;;;;;;;;;;8283306;21;20072;-72
2024/04/16 14:23:35;;;;;;;33.67;4.38;;;;;;;;;;8283608;21;20527;-72
2024/04/16 14:26:38;;;;;;;21.05;4.65;;;;;;;;;;8235439;21;20054;-72
2024/04/16 14:29:41;;;;;;;15.15;4.38;;;;;;;;;;8282043;21;19995;-72
2024/04/16 14:32:43;;;;;;;21.38;4.18;;;;;;;;;;8281790;21;20003;-72
2024/04/16 14:35:46;;;;;;;13.90;4.35;;;;;;;;;;8280926;21;20468;-72
2024/04/16 14:38:49;;;;;;;19.67;7.78;;;;;;;;;;8281516;21;19999;-71
2024/04/16 14:41:52;;;;;;;22.15;3.83;;;;;;;;;;8279075;21;20546;-73
2024/04/16 14:44:55;;;;;;;18.67;7.03;;;;;;;;;;8280166;21;19999;-72
2024/04/16 14:47:57;;;;;;;23.10;4.63;;;;;;;;;;8282524;21;20660;-72
2024/04/16 14:51:03;;;;;;;18.00;5.53;;;;;;;;;;8279074;21;20002;-73
2024/04/16 14:54:05;;;;;;;16.10;5.10;;;;;;;;;;8278794;21;20018;-72
2024/04/16 14:57:08;;;;;;;23.63;7.10;;;;;;;;;;8277311;21;20057;-72
2024/04/16 15:00:13;;;;;;;22.05;7.03;;;;;;;;;;8278309;21;20011;-72
2024/04/16 15:03:16;;;;;;;16.77;3.88;;;;;;;;;;8281070;21;19991;-72
2024/04/16 15:06:24;;;;;;;21.83;5.93;;;;;;;;;;8279687;21;20096;-72
2024/04/16 15:09:26;;;;;;;24.30;6.57;;;;;;;;;;8279072;21;19995;-72
2024/04/16 15:12:29;;;;;;;19.52;4.53;;;;;;;;;;8232418;21;20461;-73
2024/04/16 15:15:32;;;;;;;21.38;5.63;;;;;;;;;;8280069;21;20035;-73
2024/04/16 15:18:34;;;;;;;16.33;5.85;;;;;;;;;;8282031;21;20014;-72
2024/04/16 15:21:37;;;;;;;16.67;4.93;;;;;;;;;;8282111;21;20005;-72
2024/04/16 15:24:39;;;;;;;21.25;4.65;;;;;;;;;;8279751;21;19999;-72
2024/04/16 15:27:42;;;;;;;21.83;6.82;;;;;;;;;;8281741;21;19999;-72
2024/04/16 15:30:45;;;;;;;18.55;4.32;;;;;;;;;;8282016;21;20416;-72
2024/04/16 15:33:50;;;;;;;10.57;4.25;;;;;;;;;;8281131;21;20324;-72
2024/04/16 15:36:53;;;;;;;21.60;6.65;;;;;;;;;;8191236;21;20074;-72
2024/04/16 15:39:55;;;;;;;18.40;4.55;;;;;;;;;;8279530;21;20080;-72
2024/04/16 15:42:58;;;;;;;21.02;5.80;;;;;;;;;;8279311;21;20329;-72
2024/04/16 15:46:02;;;;;;;20.95;4.05;;;;;;;;;;8281345;21;19995;-72
2024/04/16 15:49:05;;;;;;;28.48;7.97;;;;;;;;;;8276438;21;20018;-73
2024/04/16 15:52:07;;;;;;;22.35;6.13;;;;;;;;;;8278630;21;20011;-72
2024/04/16 15:55:10;;;;;;;27.65;4.93;;;;;;;;;;8277189;21;20007;-73
2024/04/16 15:58:15;;;;;;;17.27;5.82;;;;;;;;;;8281080;21;19999;-72
2024/04/16 16:01:17;;;;;;;22.73;5.97;;;;;;;;;;8279031;21;20003;-73
2024/04/16 16:04:20;;;;;;;24.88;6.18;;;;;;;;;;8283213;21;20061;-72
2024/04/16 16:07:25;;;;;;;18.13;5.85;;;;;;;;;;8281925;21;20076;-73
2024/04/16 16:10:28;;;;;;;21.25;5.68;;;;;;;;;;8281329;21;19995;-72
2024/04/16 16:13:30;;;;;;;21.25;7.28;;;;;;;;;;8284620;21;19995;-73
2024/04/16 16:16:33;;;;;;;25.27;7.13;;;;;;;;;;8280626;21;19995;-73
2024/04/16 16:19:35;;;;;;;30.17;9.52;;;;;;;;;;8282218;21;20088;-73
2024/04/16 16:22:41;;;;;;;40.28;14.98;;;;;;;;;;8282234;21;20054;-73
2024/04/16 16:25:44;;;;;;;26.20;7.38;;;;;;;;;;8282869;21;19999;-73
2024/04/16 16:28:47;;;;;;;33.63;13.00;;;;;;;;;;8279885;21;20006;-73
2024/04/16 16:31:50;;;;;;;33.92;12.57;;;;;;;;;;8281202;21;20428;-73
2024/04/16 16:35:07;;;;;;;24.13;6.88;;;;;;;;;;8280232;21;20074;-73
2024/04/16 16:38:09;;;;;;;;;;;;;;;;;;8283291;21;20002;-74
2024/04/16 16:41:12;;;;;;;89.35;53.20;;;;;;;;;;8282076;21;19920;-73
2024/04/16 16:44:14;;;;;;;42.08;21.95;;;;;;;;;;8283163;21;20026;-73
2024/04/16 16:47:17;;;;;;;14.60;3.25;;;;;;;;;;8280863;21;20009;-73
2024/04/16 16:50:20;;;;;;;23.95;5.65;;;;;;;;;;8281675;21;19999;-73
2024/04/16 16:53:22;;;;;;;16.23;5.05;;;;;;;;;;8241505;21;20445;-73
2024/04/16 16:56:25;;;;;;;15.52;7.15;;;;;;;;;;8283799;21;20049;-73
2024/04/16 16:59:27;;;;;;;18.10;4.43;;;;;;;;;;8286864;21;20034;-73
2024/04/16 17:02:30;;;;;;;23.25;4.25;;;;;;;;;;8283145;21;20007;-73
2024/04/16 17:05:33;;;;;;;19.98;6.47;;;;;;;;;;8281445;21;20035;-73
2024/04/16 17:08:35;;;;;;;20.70;5.93;;;;;;;;;;8236533;21;20022;-73
2024/04/16 17:11:38;;;;;;;19.40;6.07;;;;;;;;;;8283405;21;19995;-72
2024/04/16 17:14:41;;;;;;;18.00;4.78;;;;;;;;;;8192330;21;20678;-73
2024/04/16 17:17:44;;;;;;;14.85;4.35;;;;;;;;;;8280852;21;20379;-73
2024/04/16 17:20:46;;;;;;;19.85;4.68;;;;;;;;;;8234805;21;20010;-72
2024/04/16 17:23:49;;;;;;;14.77;5.18;;;;;;;;;;8282690;21;19995;-73
2024/04/16 17:26:51;;;;;;;22.08;5.85;;;;;;;;;;8283898;21;20849;-73
2024/04/16 17:29:54;;;;;;;16.55;3.80;;;;;;;;;;8279562;21;19995;-72
2024/04/16 17:32:57;;;;;;;17.77;4.97;;;;;;;;;;8279978;21;20013;-73
2024/04/16 17:35:59;;;;;;;21.00;5.30;;;;;;;;;;8281767;21;20407;-71
2024/04/16 17:39:02;;;;;;;15.32;7.05;;;;;;;;;;8282140;21;20395;-74
2024/04/16 17:42:06;;;;;;;19.10;6.68;;;;;;;;;;8276624;21;20353;-74
2024/04/16 17:45:08;;;;;;;9.45;3.42;;;;;;;;;;8279260;21;20080;-74
2024/04/16 17:48:11;;;;;;;23.95;6.90;;;;;;;;;;8278418;21;19995;-74
2024/04/16 17:51:20;;;;;;;23.25;7.45;;;;;;;;;;8279071;21;20057;-74
2024/04/16 17:54:23;;;;;;;26.38;5.35;;;;;;;;;;8189935;21;20579;-73
2024/04/16 17:57:27;;;;;;;10.43;2.53;;;;;;;;;;8278495;21;20046;-74
2024/04/16 18:00:29;;;;;;;11.63;6.35;;;;;;;;;;8279060;21;20029;-74
2024/04/16 18:03:33;;;;;;;13.55;3.33;;;;;;;;;;8279310;21;20003;-73
2024/04/16 18:06:38;;;;;;;12.10;5.47;;;;;;;;;;8278541;21;20043;-74
2024/04/16 18:09:41;;;;;;;11.48;5.25;;;;;;;;;;8278007;21;19995;-75
2024/04/16 18:12:43;;;;;;;8.90;5.15;;;;;;;;;;8233517;21;19991;-73